createdAt,value
2017-08-05T00:00:49.298Z,65.5
2017-08-05T00:02:00.980Z,65.01
2017-08-05T00:03:11.449Z,65.59
2017-08-05T00:04:21.592Z,65.01
2017-08-05T00:05:32.138Z,65.2
2017-08-05T00:06:42.340Z,65.84
2017-08-05T00:07:53.048Z,65.5
2017-08-05T00:09:03.530Z,65.75
2017-08-05T00:10:13.999Z,65.75
2017-08-05T00:11:24.173Z,65.27
2017-08-05T00:12:34.647Z,65.66
2017-08-05T00:13:45.449Z,65.37
2017-08-05T00:14:55.909Z,65.75
2017-08-05T00:16:06.447Z,66.23
2017-08-05T00:17:17.138Z,66.23
2017-08-05T00:18:27.677Z,66.14
2017-08-05T00:19:38.575Z,65.75
2017-08-05T00:20:48.608Z,65.75
2017-08-05T00:21:59.188Z,65.94
2017-08-05T00:23:09.664Z,66.04
2017-08-05T00:24:20.122Z,65.94
2017-08-05T00:25:30.810Z,66.71
2017-08-05T00:26:41.411Z,66.33
2017-08-05T00:27:51.865Z,65.94
2017-08-05T00:29:02.353Z,66.04
2017-08-05T00:30:12.838Z,66.33
2017-08-05T00:31:23.544Z,66.14
2017-08-05T00:32:34.074Z,66.23
2017-08-05T00:33:44.546Z,66.23
2017-08-05T00:34:55.072Z,66.04
2017-08-05T00:36:05.565Z,65.94
2017-08-05T00:37:16.273Z,66.23
2017-08-05T00:38:26.740Z,66.23
2017-08-05T00:39:37.200Z,66.14
2017-08-05T00:40:47.699Z,66.14
2017-08-05T00:41:58.181Z,66.04
2017-08-05T00:43:08.572Z,66.14
2017-08-05T00:44:19.036Z,66.23
2017-08-05T00:45:29.523Z,66.33
2017-08-05T00:46:39.978Z,65.75
2017-08-05T00:47:50.444Z,66.14
2017-08-05T00:49:01.069Z,65.56
2017-08-05T00:50:11.600Z,66.23
2017-08-05T00:51:22.086Z,66.14
2017-08-05T00:52:32.559Z,66.42
2017-08-05T00:53:43.139Z,65.84
2017-08-05T00:54:53.883Z,65.56
2017-08-05T00:56:04.522Z,66.33
2017-08-05T00:57:14.636Z,66.14
2017-08-05T00:58:25.109Z,65.56
2017-08-05T00:59:35.265Z,65.84
2017-08-05T01:00:45.979Z,65.84
2017-08-05T01:01:56.455Z,65.84
2017-08-05T01:03:06.481Z,66.23
2017-08-05T01:04:16.994Z,65.94
2017-08-05T01:05:27.257Z,65.66
2017-08-05T01:06:37.984Z,65.46
2017-08-05T01:07:48.129Z,65.75
2017-08-05T01:08:58.717Z,65.66
2017-08-05T01:10:09.218Z,65.84
2017-08-05T01:11:19.699Z,65.75
2017-08-05T01:12:31.429Z,66.14
2017-08-05T01:13:41.459Z,66.33
2017-08-05T01:14:51.916Z,66.14
2017-08-05T01:16:02.517Z,65.84
2017-08-05T01:17:12.957Z,66.23
2017-08-05T01:18:23.375Z,65.94
2017-08-05T01:19:34.063Z,66.14
2017-08-05T01:20:44.526Z,66.14
2017-08-05T01:21:55.126Z,66.42
2017-08-05T01:23:05.622Z,66.14
2017-08-05T01:24:16.341Z,66.14
2017-08-05T01:25:26.475Z,66.14
2017-08-05T01:26:36.982Z,66.23
2017-08-05T01:27:47.486Z,66.33
2017-08-05T01:28:57.956Z,66.04
2017-08-05T01:30:08.680Z,66.23
2017-08-05T01:31:18.852Z,66.52
2017-08-05T01:32:29.310Z,66.33
2017-08-05T01:33:39.770Z,66.14
2017-08-05T01:34:50.230Z,66.81
2017-08-05T01:36:01.050Z,66.81
2017-08-05T01:37:11.062Z,66.81
2017-08-05T01:38:21.798Z,66.71
2017-08-05T01:39:31.977Z,66.81
2017-08-05T01:40:42.458Z,67.1
2017-08-05T01:41:53.166Z,67.1
2017-08-05T01:43:03.634Z,67.29
2017-08-05T01:44:14.108Z,67.1
2017-08-05T01:45:24.131Z,67.58
2017-08-05T01:46:34.652Z,67.29
2017-08-05T01:47:45.409Z,67.96
2017-08-05T01:48:56.005Z,67.77
2017-08-05T01:50:06.697Z,67.58
2017-08-05T01:51:16.840Z,67.48
2017-08-05T01:52:26.978Z,67.48
2017-08-05T01:53:37.402Z,67.68
2017-08-05T01:54:47.866Z,67.68
2017-08-05T01:55:58.031Z,68.21
2017-08-05T01:57:08.177Z,67.93
2017-08-05T01:58:18.753Z,68.02
2017-08-05T01:59:29.066Z,67.54
2017-08-05T02:00:39.526Z,67.93
2017-08-05T02:01:49.984Z,67.74
2017-08-05T02:03:00.119Z,67.64
2017-08-05T02:04:10.179Z,67.64
2017-08-05T02:05:20.571Z,67.45
2017-08-05T02:06:30.708Z,68.02
2017-08-05T02:07:41.191Z,67.93
2017-08-05T02:08:51.818Z,68.21
2017-08-05T02:10:02.253Z,68.02
2017-08-05T02:11:12.956Z,67.45
2017-08-05T02:12:23.485Z,67.64
2017-08-05T02:13:33.957Z,67.54
2017-08-05T02:14:44.446Z,67.83
2017-08-05T02:15:54.943Z,67.64
2017-08-05T02:17:05.676Z,67.54
2017-08-05T02:18:16.131Z,68.12
2017-08-05T02:19:26.646Z,67.93
2017-08-05T02:20:36.791Z,67.93
2017-08-05T02:21:46.810Z,67.83
2017-08-05T02:22:57.612Z,67.93
2017-08-05T02:24:08.071Z,67.74
2017-08-05T02:25:18.550Z,67.64
2017-08-05T02:26:28.700Z,67.45
2017-08-05T02:27:39.343Z,67.64
2017-08-05T02:28:50.295Z,67.64
2017-08-05T02:30:00.800Z,67.74
2017-08-05T02:31:11.328Z,67.45
2017-08-05T02:32:21.830Z,67.54
2017-08-05T02:33:32.360Z,67.54
2017-08-05T02:34:43.301Z,68.37
2017-08-05T02:35:53.781Z,68.41
2017-08-05T02:37:04.244Z,68.31
2017-08-05T02:38:14.736Z,67.99
2017-08-05T02:39:25.195Z,68.37
2017-08-05T02:40:35.932Z,68.51
2017-08-05T02:41:46.066Z,68.51
2017-08-05T02:42:56.536Z,67.9
2017-08-05T02:44:06.999Z,68.57
2017-08-05T02:45:17.455Z,68.28
2017-08-05T02:46:28.185Z,68.76
2017-08-05T02:47:38.235Z,68.76
2017-08-05T02:48:48.694Z,68.28
2017-08-05T02:49:59.174Z,68.37
2017-08-05T02:51:10.309Z,68.76
2017-08-05T02:52:21.044Z,68.66
2017-08-05T02:53:31.494Z,68.66
2017-08-05T02:54:42.253Z,68.85
2017-08-05T02:55:52.577Z,68.95
2017-08-05T02:57:03.051Z,69.05
2017-08-05T02:58:13.992Z,68.95
2017-08-05T02:59:24.333Z,69.34
2017-08-05T03:00:34.796Z,69.24
2017-08-05T03:01:45.624Z,69.34
2017-08-05T03:02:55.838Z,69.34
2017-08-05T03:04:06.780Z,68.95
2017-08-05T03:05:16.929Z,68.95
2017-08-05T03:06:27.761Z,69.43
2017-08-05T03:07:38.345Z,68.95
2017-08-05T03:08:48.825Z,69.43
2017-08-05T03:09:59.538Z,69.81
2017-08-05T03:11:10.109Z,69.62
2017-08-05T03:12:20.840Z,69.53
2017-08-05T03:13:31.321Z,68.95
2017-08-05T03:14:42.006Z,69.05
2017-08-05T03:15:52.290Z,69.62
2017-08-05T03:17:02.788Z,69.62
2017-08-05T03:18:13.369Z,69.72
2017-08-05T03:19:23.836Z,69.81
2017-08-05T03:20:34.288Z,70.01
2017-08-05T03:21:45.022Z,69.81
2017-08-05T03:22:55.547Z,69.91
2017-08-05T03:24:06.034Z,69.81
2017-08-05T03:25:16.741Z,69.81
2017-08-05T03:26:27.205Z,70.01
2017-08-05T03:27:37.939Z,70.1
2017-08-05T03:28:48.396Z,70.49
2017-08-05T03:29:58.875Z,70.39
2017-08-05T03:31:09.333Z,70.1
2017-08-05T03:32:19.942Z,70.01
2017-08-05T03:33:30.617Z,69.81
2017-08-05T03:34:40.850Z,70.1
2017-08-05T03:35:51.309Z,69.91
2017-08-05T03:37:01.852Z,70.1
2017-08-05T03:38:12.343Z,69.53
2017-08-05T03:39:23.078Z,69.62
2017-08-05T03:40:33.565Z,69.53
2017-08-05T03:41:44.053Z,70.1
2017-08-05T03:42:54.504Z,70.1
2017-08-05T03:44:04.328Z,70.2
2017-08-05T03:45:15.213Z,69.62
2017-08-05T03:46:25.652Z,69.81
2017-08-05T03:47:36.313Z,69.81
2017-08-05T03:48:46.173Z,69.72
2017-08-05T03:49:56.711Z,70.01
2017-08-05T03:51:07.431Z,70.07
2017-08-05T03:52:17.893Z,69.97
2017-08-05T03:53:28.365Z,69.87
2017-08-05T03:54:38.815Z,70.55
2017-08-05T03:55:49.456Z,69.87
2017-08-05T03:57:00.146Z,70.45
2017-08-05T03:58:10.661Z,70.45
2017-08-05T03:59:21.142Z,70.26
2017-08-05T04:00:31.600Z,71.03
2017-08-05T04:01:42.054Z,70.84
2017-08-05T04:02:52.902Z,70.84
2017-08-05T04:04:03.361Z,70.74
2017-08-05T04:05:13.960Z,71.03
2017-08-05T04:06:24.391Z,70.93
2017-08-05T04:07:34.403Z,70.74
2017-08-05T04:08:45.107Z,71.03
2017-08-05T04:09:55.359Z,71.41
2017-08-05T04:11:05.822Z,71.12
2017-08-05T04:12:16.307Z,71.03
2017-08-05T04:13:26.779Z,71.22
2017-08-05T04:14:37.624Z,71.31
2017-08-05T04:15:47.625Z,71.22
2017-08-05T04:16:58.148Z,71.12
2017-08-05T04:18:08.601Z,71.31
2017-08-05T04:19:19.086Z,71.41
2017-08-05T04:20:29.780Z,71.61
2017-08-05T04:21:40.247Z,71.41
2017-08-05T04:22:50.769Z,71.41
2017-08-05T04:24:01.213Z,71.41
2017-08-05T04:25:11.299Z,71.41
2017-08-05T04:26:22.033Z,71.31
2017-08-05T04:27:32.524Z,71.41
2017-08-05T04:28:42.971Z,71.22
2017-08-05T04:29:53.515Z,71.41
2017-08-05T04:31:03.769Z,71.22
2017-08-05T04:32:14.485Z,71.61
2017-08-05T04:33:24.691Z,71.41
2017-08-05T04:34:35.147Z,71.51
2017-08-05T04:35:45.644Z,71.61
2017-08-05T04:36:56.128Z,71.61
2017-08-05T04:38:06.822Z,71.61
2017-08-05T04:39:17.319Z,71.61
2017-08-05T04:40:27.786Z,71.41
2017-08-05T04:41:38.063Z,72.08
2017-08-05T04:42:48.522Z,71.61
2017-08-05T04:43:58.943Z,71.51
2017-08-05T04:45:09.417Z,71.61
2017-08-05T04:46:19.626Z,72.08
2017-08-05T04:47:30.087Z,71.61
2017-08-05T04:48:40.632Z,71.61
2017-08-05T04:49:51.033Z,71.31
2017-08-05T04:51:01.509Z,71.22
2017-08-05T04:52:11.648Z,71.03
2017-08-05T04:53:22.124Z,71.12
2017-08-05T04:54:32.299Z,71.51
2017-08-05T04:55:43.111Z,71.41
2017-08-05T04:56:53.265Z,71.51
2017-08-05T04:58:03.737Z,72.18
2017-08-05T04:59:14.180Z,72.12
2017-08-05T05:00:24.631Z,72.22
2017-08-05T05:01:35.319Z,71.45
2017-08-05T05:02:45.931Z,71.16
2017-08-05T05:03:56.398Z,71.25
2017-08-05T05:05:06.561Z,71.35
2017-08-05T05:06:17.046Z,71.35
2017-08-05T05:07:28.729Z,71.1
2017-08-05T05:08:39.284Z,70.9
2017-08-05T05:09:50.029Z,70.72
2017-08-05T05:11:00.694Z,70.52
2017-08-05T05:12:11.214Z,70.9
2017-08-05T05:13:21.906Z,70.72
2017-08-05T05:14:32.403Z,70.72
2017-08-05T05:15:42.898Z,70.62
2017-08-05T05:16:53.388Z,70.52
2017-08-05T05:18:03.856Z,70.72
2017-08-05T05:19:14.832Z,70.52
2017-08-05T05:20:25.360Z,70.14
2017-08-05T05:21:36.067Z,69.89
2017-08-05T05:22:46.515Z,69.6
2017-08-05T05:23:56.973Z,69.79
2017-08-05T05:25:07.369Z,69.75
2017-08-05T05:26:17.921Z,69.66
2017-08-05T05:27:28.375Z,69.66
2017-08-05T05:28:38.854Z,69.85
2017-08-05T05:29:49.319Z,69.56
2017-08-05T05:30:59.808Z,69.66
2017-08-05T05:32:10.260Z,70.14
2017-08-05T05:33:20.909Z,70.14
2017-08-05T05:34:31.454Z,70.14
2017-08-05T05:35:41.918Z,70.23
2017-08-05T05:36:52.695Z,69.85
2017-08-05T05:38:02.839Z,70.04
2017-08-05T05:39:12.877Z,70.04
2017-08-05T05:40:23.429Z,69.85
2017-08-05T05:41:33.916Z,70.14
2017-08-05T05:42:44.637Z,69.69
2017-08-05T05:43:55.095Z,69.69
2017-08-05T05:45:05.160Z,69.89
2017-08-05T05:46:15.332Z,69.79
2017-08-05T05:47:25.836Z,69.4
2017-08-05T05:48:36.544Z,69.21
2017-08-05T05:49:47.008Z,69.4
2017-08-05T05:50:57.482Z,69.31
2017-08-05T05:52:07.628Z,69.4
2017-08-05T05:53:18.110Z,69.31
2017-08-05T05:54:28.828Z,69.4
2017-08-05T05:55:39.296Z,69.4
2017-08-05T05:56:49.865Z,69.02
2017-08-05T05:58:00.176Z,69.06
2017-08-05T05:59:10.664Z,69.15
2017-08-05T06:00:21.450Z,69.24
2017-08-05T06:01:31.920Z,69.15
2017-08-05T06:02:42.413Z,68.86
2017-08-05T06:03:52.855Z,68.96
2017-08-05T06:05:03.559Z,68.86
2017-08-05T06:06:14.026Z,68.76
2017-08-05T06:07:24.481Z,68.38
2017-08-05T06:08:34.942Z,68.48
2017-08-05T06:09:45.566Z,68.67
2017-08-05T06:10:56.124Z,68.6
2017-08-05T06:12:06.069Z,68.8
2017-08-05T06:13:16.602Z,68.41
2017-08-05T06:14:27.140Z,68.22
2017-08-05T06:15:37.806Z,68.03
2017-08-05T06:16:47.828Z,68.13
2017-08-05T06:17:58.941Z,67.45
2017-08-05T06:19:09.409Z,67.74
2017-08-05T06:20:20.092Z,67.58
2017-08-05T06:21:30.556Z,67.39
2017-08-05T06:22:40.718Z,67.19
2017-08-05T06:23:51.475Z,66.71
2017-08-05T06:25:01.932Z,67
2017-08-05T06:26:12.416Z,66.94
2017-08-05T06:27:22.850Z,66.55
2017-08-05T06:28:33.733Z,66.36
2017-08-05T06:29:44.447Z,66.85
2017-08-05T06:30:54.905Z,66.46
2017-08-05T06:32:05.385Z,66.36
2017-08-05T06:33:15.872Z,66.36
2017-08-05T06:34:26.022Z,66.27
2017-08-05T06:35:36.561Z,66.2
2017-08-05T06:36:47.233Z,66.11
2017-08-05T06:37:57.702Z,65.91
2017-08-05T06:39:08.321Z,65.81
2017-08-05T06:40:18.789Z,65.43
2017-08-05T06:41:29.538Z,64.89
2017-08-05T06:42:40.117Z,65.27
2017-08-05T06:43:50.580Z,64.79
2017-08-05T06:45:01.073Z,64.05
2017-08-05T06:46:11.579Z,63.47
2017-08-05T06:47:22.315Z,63.67
2017-08-05T06:48:32.624Z,63.76
2017-08-05T06:49:43.091Z,62.89
2017-08-05T06:50:53.598Z,62.63
2017-08-05T06:52:04.061Z,62.79
2017-08-05T06:53:14.768Z,62.79
2017-08-05T06:54:25.232Z,63.18
2017-08-05T06:55:35.687Z,63.18
2017-08-05T06:56:45.859Z,63.09
2017-08-05T06:57:57.311Z,62.79
2017-08-05T06:59:08.148Z,62.89
2017-08-05T07:00:18.645Z,62.66
2017-08-05T07:01:29.151Z,63.44
2017-08-05T07:02:39.779Z,63.15
2017-08-05T07:03:50.256Z,63.28
2017-08-05T07:05:01.115Z,62.89
2017-08-05T07:06:11.625Z,62.22
2017-08-05T07:07:22.103Z,62.31
2017-08-05T07:08:32.626Z,61.64
2017-08-05T07:09:42.805Z,61.35
2017-08-05T07:10:53.800Z,61.19
2017-08-05T07:12:04.331Z,60.61
2017-08-05T07:13:14.811Z,60.61
2017-08-05T07:14:25.326Z,60.61
2017-08-05T07:15:35.872Z,60.22
2017-08-05T07:16:46.166Z,59.64
2017-08-05T07:17:56.790Z,59.55
2017-08-05T07:19:07.255Z,59.45
2017-08-05T07:20:17.762Z,58.68
2017-08-05T07:21:27.930Z,58.68
2017-08-05T07:22:38.679Z,59.35
2017-08-05T07:23:49.256Z,59.64
2017-08-05T07:24:59.880Z,59.74
2017-08-05T07:26:10.107Z,59.55
2017-08-05T07:27:20.572Z,59.64
2017-08-05T07:28:31.487Z,59.64
2017-08-05T07:29:42.011Z,59.8
2017-08-05T07:30:52.154Z,59.64
2017-08-05T07:32:02.791Z,59.52
2017-08-05T07:33:13.247Z,59.03
2017-08-05T07:34:23.377Z,59.23
2017-08-05T07:35:34.022Z,59.23
2017-08-05T07:36:44.647Z,59.42
2017-08-05T07:37:55.126Z,59.61
2017-08-05T07:39:05.707Z,59.61
2017-08-05T07:40:16.553Z,59.61
2017-08-05T07:41:27.008Z,59.61
2017-08-05T07:42:37.497Z,59.42
2017-08-05T07:43:48.043Z,59.71
2017-08-05T07:44:58.224Z,59.52
2017-08-05T07:46:08.694Z,59.61
2017-08-05T07:47:18.836Z,59.23
2017-08-05T07:48:29.313Z,59.32
2017-08-05T07:49:39.461Z,59.23
2017-08-05T07:50:49.927Z,59.23
2017-08-05T07:52:00.638Z,59.23
2017-08-05T07:53:11.115Z,59.32
2017-08-05T07:54:21.662Z,59.52
2017-08-05T07:55:32.185Z,58.94
2017-08-05T07:56:42.641Z,59.03
2017-08-05T07:57:53.380Z,59.61
2017-08-05T07:59:03.857Z,59.23
2017-08-05T08:00:14.331Z,59.42
2017-08-05T08:01:24.866Z,59.42
2017-08-05T08:02:35.403Z,58.94
2017-08-05T08:03:46.137Z,58.55
2017-08-05T08:04:56.673Z,58.94
2017-08-05T08:06:07.163Z,58.84
2017-08-05T08:07:17.667Z,58.55
2017-08-05T08:08:28.121Z,58.45
2017-08-05T08:09:38.625Z,57.97
2017-08-05T08:10:49.122Z,58.17
2017-08-05T08:11:59.641Z,58.36
2017-08-05T08:13:10.109Z,58.45
2017-08-05T08:14:20.257Z,58.45
2017-08-05T08:15:30.801Z,58.45
2017-08-05T08:16:41.249Z,58.55
2017-08-05T08:17:51.433Z,58.07
2017-08-05T08:19:01.992Z,58.36
2017-08-05T08:20:12.450Z,58.55
2017-08-05T08:21:23.211Z,58.55
2017-08-05T08:22:33.681Z,58.17
2017-08-05T08:23:44.286Z,58.42
2017-08-05T08:24:54.439Z,58.65
2017-08-05T08:26:04.910Z,58.84
2017-08-05T08:27:15.656Z,58.42
2017-08-05T08:28:26.199Z,58.65
2017-08-05T08:29:36.693Z,58.45
2017-08-05T08:30:46.862Z,58.36
2017-08-05T08:31:57.353Z,58.55
2017-08-05T08:33:08.297Z,58.75
2017-08-05T08:34:18.782Z,58.65
2017-08-05T08:35:29.277Z,59
2017-08-05T08:36:39.758Z,58.94
2017-08-05T08:37:50.222Z,58.94
2017-08-05T08:39:01.078Z,58.75
2017-08-05T08:40:11.267Z,58.84
2017-08-05T08:41:21.763Z,58.75
2017-08-05T08:42:32.230Z,58.94
2017-08-05T08:43:42.681Z,58.75
2017-08-05T08:44:53.402Z,58.84
2017-08-05T08:46:03.592Z,58.84
2017-08-05T08:47:14.124Z,58.97
2017-08-05T08:48:24.575Z,58.68
2017-08-05T08:49:35.041Z,58.39
2017-08-05T08:50:45.758Z,58.22
2017-08-05T08:51:57.179Z,57.74
2017-08-05T08:53:07.693Z,57.35
2017-08-05T08:54:18.221Z,56.8
2017-08-05T08:55:28.068Z,56.9
2017-08-05T08:56:38.783Z,56.8
2017-08-05T08:57:49.263Z,56.9
2017-08-05T08:58:59.110Z,56.51
2017-08-05T09:00:09.601Z,56.25
2017-08-05T09:01:20.068Z,56.05
2017-08-05T09:02:30.808Z,55.93
2017-08-05T09:03:41.305Z,55.74
2017-08-05T09:04:51.767Z,56.03
2017-08-05T09:06:02.375Z,56.22
2017-08-05T09:07:12.567Z,56.22
2017-08-05T09:08:23.309Z,56.99
2017-08-05T09:09:33.775Z,57.19
2017-08-05T09:10:44.275Z,57.64
2017-08-05T09:11:54.724Z,57.64
2017-08-05T09:13:05.553Z,58.9
2017-08-05T09:14:17.823Z,59.19
2017-08-05T09:15:28.353Z,59.86
2017-08-05T09:16:38.969Z,60.71
2017-08-05T09:17:49.553Z,61.28
2017-08-05T09:18:59.765Z,62.02
2017-08-05T09:20:10.591Z,62.7
2017-08-05T09:21:21.083Z,63.76
2017-08-05T09:22:31.643Z,64.4
2017-08-05T09:23:42.227Z,65.56
2017-08-05T09:24:52.774Z,66.52
2017-08-05T09:26:03.550Z,66.2
2017-08-05T09:27:14.044Z,66.88
2017-08-05T09:28:24.527Z,67.16
2017-08-05T09:29:35.006Z,67.36
2017-08-05T09:30:45.561Z,67.74
2017-08-05T09:31:56.332Z,68.29
2017-08-05T09:33:06.878Z,68.68
2017-08-05T09:34:17.343Z,68.77
2017-08-05T09:35:28.023Z,68.87
2017-08-05T09:36:38.620Z,68.68
2017-08-05T09:37:49.033Z,69.25
2017-08-05T09:38:59.552Z,69.25
2017-08-05T09:40:10.095Z,68.77
2017-08-05T09:41:20.461Z,68.68
2017-08-05T09:42:30.951Z,68.48
2017-08-05T09:43:41.259Z,68.48
2017-08-05T09:44:51.817Z,68.61
2017-08-05T09:46:02.079Z,68.9
2017-08-05T09:47:12.187Z,69.38
2017-08-05T09:48:22.766Z,68.61
2017-08-05T09:49:33.503Z,68.8
2017-08-05T09:50:44.004Z,68.9
2017-08-05T09:51:54.649Z,68.8
2017-08-05T09:53:05.176Z,69.09
2017-08-05T09:54:15.341Z,69.38
2017-08-05T09:55:26.060Z,68.9
2017-08-05T09:56:36.573Z,68.58
2017-08-05T09:57:47.111Z,69.09
2017-08-05T09:58:57.668Z,69.09
2017-08-05T10:00:08.189Z,69.48
2017-08-05T10:01:19.086Z,69.09
2017-08-05T10:02:29.609Z,69.29
2017-08-05T10:03:40.123Z,69.06
2017-08-05T10:04:50.908Z,69.83
2017-08-05T10:06:01.381Z,70.31
2017-08-05T10:07:12.143Z,69.64
2017-08-05T10:08:22.761Z,70.31
2017-08-05T10:09:33.256Z,70.31
2017-08-05T10:10:43.833Z,71.08
2017-08-05T10:11:54.293Z,70.89
2017-08-05T10:13:05.126Z,71.28
2017-08-05T10:14:15.324Z,71.31
2017-08-05T10:15:25.811Z,70.54
2017-08-05T10:16:36.682Z,70.73
2017-08-05T10:17:47.171Z,70.92
2017-08-05T10:18:57.714Z,70.73
2017-08-05T10:20:08.224Z,70.73
2017-08-05T10:21:18.791Z,70.15
2017-08-05T10:22:29.186Z,69.13
2017-08-05T10:23:39.718Z,69.19
2017-08-05T10:24:50.225Z,69.09
2017-08-05T10:26:00.670Z,69.13
2017-08-05T10:27:11.257Z,69.23
2017-08-05T10:28:21.976Z,69.77
2017-08-05T10:29:32.489Z,69.67
2017-08-05T10:30:42.980Z,69.61
2017-08-05T10:31:53.524Z,69.61
2017-08-05T10:33:04.140Z,69.13
2017-08-05T10:34:14.581Z,69.51
2017-08-05T10:35:24.773Z,68.93
2017-08-05T10:36:35.501Z,69.13
2017-08-05T10:37:45.966Z,69.13
2017-08-05T10:38:56.545Z,69.03
2017-08-05T10:40:07.464Z,69.42
2017-08-05T10:41:17.659Z,69.13
2017-08-05T10:42:28.126Z,68.74
2017-08-05T10:43:38.085Z,69.23
2017-08-05T10:44:48.282Z,69.8
2017-08-05T10:45:59.106Z,69.9
2017-08-05T10:47:09.604Z,70
2017-08-05T10:48:20.165Z,70.38
2017-08-05T10:49:30.419Z,70.38
2017-08-05T10:50:41.993Z,70.35
2017-08-05T10:51:52.794Z,70.73
2017-08-05T10:53:03.276Z,71.12
2017-08-05T10:54:13.764Z,71.89
2017-08-05T10:55:24.367Z,71.7
2017-08-05T10:56:34.845Z,71.6
2017-08-05T10:57:45.631Z,71.89
2017-08-05T10:58:56.273Z,72.37
2017-08-05T11:00:06.403Z,72.56
2017-08-05T11:01:17.054Z,72.85
2017-08-05T11:02:27.541Z,72.85
2017-08-05T11:03:37.294Z,73.53
2017-08-05T11:04:47.755Z,73.91
2017-08-05T11:05:57.933Z,73.82
2017-08-05T11:07:08.163Z,73.58
2017-08-05T11:08:18.677Z,73.91
2017-08-05T11:09:29.512Z,73.88
2017-08-05T11:10:39.993Z,74.36
2017-08-05T11:11:50.513Z,74.36
2017-08-05T11:13:01.045Z,74.74
2017-08-05T11:14:11.519Z,74.84
2017-08-05T11:15:22.269Z,75.51
2017-08-05T11:16:32.740Z,75.23
2017-08-05T11:17:43.226Z,75.51
2017-08-05T11:18:53.749Z,75.42
2017-08-05T11:20:04.279Z,75.23
2017-08-05T11:21:15.017Z,75.9
2017-08-05T11:22:25.494Z,75.03
2017-08-05T11:23:36.041Z,75.13
2017-08-05T11:24:46.621Z,75.42
2017-08-05T11:25:56.851Z,76.18
2017-08-05T11:27:07.603Z,75.99
2017-08-05T11:28:18.119Z,75.99
2017-08-05T11:29:28.626Z,76.67
2017-08-05T11:30:39.095Z,76.86
2017-08-05T11:31:49.475Z,75.99
2017-08-05T11:33:00.263Z,76.38
2017-08-05T11:34:10.747Z,75.57
2017-08-05T11:35:21.238Z,75.32
2017-08-05T11:36:31.529Z,75.13
2017-08-05T11:37:42.287Z,74.93
2017-08-05T11:38:52.854Z,75.03
2017-08-05T11:40:03.335Z,75.03
2017-08-05T11:41:13.882Z,75.23
2017-08-05T11:42:24.377Z,74.74
2017-08-05T11:43:34.854Z,75.03
2017-08-05T11:44:45.856Z,75.23
2017-08-05T11:45:56.378Z,74.93
2017-08-05T11:47:06.901Z,74.16
2017-08-05T11:48:17.538Z,74.55
2017-08-05T11:49:28.085Z,74.65
2017-08-05T11:50:39.037Z,74.16
2017-08-05T11:51:49.606Z,74.45
2017-08-05T11:53:00.383Z,74.49
2017-08-05T11:54:10.952Z,73.88
2017-08-05T11:55:21.520Z,74.36
2017-08-05T11:56:32.552Z,74.49
2017-08-05T11:57:43.055Z,74.49
2017-08-05T11:58:53.208Z,73.88
2017-08-05T12:00:03.396Z,74.01
2017-08-05T12:01:13.579Z,73.88
2017-08-05T12:02:24.352Z,73.58
2017-08-05T12:03:34.870Z,73.78
2017-08-05T12:04:45.620Z,73.78
2017-08-05T12:05:55.917Z,73.58
2017-08-05T12:07:06.529Z,73.78
2017-08-05T12:08:16.950Z,73.88
2017-08-05T12:09:27.447Z,74.13
2017-08-05T12:10:37.933Z,74.32
2017-08-05T12:11:48.118Z,74.41
2017-08-05T12:12:58.681Z,75.09
2017-08-05T12:14:09.392Z,75.09
2017-08-05T12:15:19.881Z,75.09
2017-08-05T12:16:30.346Z,75.96
2017-08-05T12:17:41.061Z,76.44
2017-08-05T12:18:52.618Z,76.53
2017-08-05T12:20:02.906Z,76.92
2017-08-05T12:21:13.087Z,77.11
2017-08-05T12:22:23.253Z,77.4
2017-08-05T12:23:33.716Z,77.4
2017-08-05T12:24:44.255Z,77.31
2017-08-05T12:25:55.031Z,77.17
2017-08-05T12:27:05.637Z,77.78
2017-08-05T12:28:16.114Z,77.84
2017-08-05T12:29:26.633Z,77.94
2017-08-05T12:30:37.221Z,78.13
2017-08-05T12:31:47.957Z,78.52
2017-08-05T12:32:58.427Z,79.67
2017-08-05T12:34:08.915Z,79.38
2017-08-05T12:35:19.458Z,79.1
2017-08-05T12:36:29.934Z,80.15
2017-08-05T12:37:40.720Z,79.73
2017-08-05T12:38:51.483Z,80.11
2017-08-05T12:40:01.520Z,80.69
2017-08-05T12:41:12.070Z,81.27
2017-08-05T12:42:22.552Z,80.88
2017-08-05T12:43:33.316Z,81.46
2017-08-05T12:44:43.890Z,82.19
2017-08-05T12:45:55.351Z,81.99
2017-08-05T12:47:05.862Z,82.09
2017-08-05T12:48:16.354Z,82.86
2017-08-05T12:49:27.190Z,83.92
2017-08-05T12:50:37.832Z,83.63
2017-08-05T12:51:48.333Z,84.3
2017-08-05T12:52:58.871Z,84.21
2017-08-05T12:54:09.161Z,83.92
2017-08-05T12:55:19.769Z,85.07
2017-08-05T12:56:30.030Z,84.78
2017-08-05T12:57:40.723Z,85.55
2017-08-05T12:58:51.343Z,84.98
2017-08-05T13:00:01.386Z,84.98
2017-08-05T13:01:12.329Z,85.46
2017-08-05T13:02:22.912Z,85.17
2017-08-05T13:03:33.433Z,85.46
2017-08-05T13:04:43.936Z,85.17
2017-08-05T13:05:54.410Z,85.27
2017-08-05T13:07:05.193Z,85.07
2017-08-05T13:08:15.706Z,85.75
2017-08-05T13:09:26.280Z,85.65
2017-08-05T13:10:36.885Z,85.65
2017-08-05T13:11:47.352Z,85.46
2017-08-05T13:12:58.248Z,85.75
2017-08-05T13:14:08.736Z,85.46
2017-08-05T13:15:19.320Z,85.36
2017-08-05T13:16:29.833Z,85.46
2017-08-05T13:17:40.402Z,85.11
2017-08-05T13:18:51.212Z,84.73
2017-08-05T13:20:01.843Z,85.02
2017-08-05T13:21:12.428Z,84.67
2017-08-05T13:22:22.934Z,85.06
2017-08-05T13:23:33.421Z,84.58
2017-08-05T13:24:44.182Z,84.43
2017-08-05T13:25:55.680Z,83.47
2017-08-05T13:27:06.142Z,83.37
2017-08-05T13:28:16.663Z,82.93
2017-08-05T13:29:27.240Z,82.83
2017-08-05T13:30:37.968Z,82.74
2017-08-05T13:31:48.490Z,82.01
2017-08-05T13:32:58.968Z,81.72
2017-08-05T13:34:09.507Z,81.14
2017-08-05T13:35:20.028Z,80.85
2017-08-05T13:36:30.785Z,81.14
2017-08-05T13:37:40.859Z,81.14
2017-08-05T13:38:51.050Z,80.85
2017-08-05T13:40:01.548Z,80.66
2017-08-05T13:41:12.098Z,80.27
2017-08-05T13:42:22.637Z,80.76
2017-08-05T13:43:33.356Z,80.46
2017-08-05T13:44:43.893Z,80.46
2017-08-05T13:45:54.427Z,80.56
2017-08-05T13:47:04.923Z,80.56
2017-08-05T13:48:15.761Z,80.37
2017-08-05T13:49:26.284Z,80.18
2017-08-05T13:50:36.562Z,80.08
2017-08-05T13:51:47.246Z,80.08
2017-08-05T13:52:57.752Z,79.6
2017-08-05T13:54:08.790Z,80.18
2017-08-05T13:55:19.183Z,80.08
2017-08-05T13:56:29.362Z,80.94
2017-08-05T13:57:39.978Z,80.56
2017-08-05T13:58:50.569Z,80.37
2017-08-05T14:00:01.407Z,80.08
2017-08-05T14:01:12.016Z,79.69
2017-08-05T14:02:22.663Z,80.08
2017-08-05T14:03:33.122Z,79.69
2017-08-05T14:04:43.621Z,79.64
2017-08-05T14:05:54.347Z,79.16
2017-08-05T14:07:04.849Z,79.16
2017-08-05T14:08:15.345Z,78.77
2017-08-05T14:09:25.833Z,78
2017-08-05T14:10:36.557Z,78.38
2017-08-05T14:11:47.314Z,78.19
2017-08-05T14:12:57.896Z,77.71
2017-08-05T14:14:08.517Z,77.51
2017-08-05T14:15:19.021Z,77.51
2017-08-05T14:16:29.524Z,78.06
2017-08-05T14:17:40.493Z,78.25
2017-08-05T14:18:50.993Z,78.92
2017-08-05T14:20:01.763Z,78.92
2017-08-05T14:21:12.352Z,78.92
2017-08-05T14:22:23.035Z,79.11
2017-08-05T14:23:33.473Z,79.5
2017-08-05T14:24:43.979Z,79.5
2017-08-05T14:25:54.150Z,79.5
2017-08-05T14:27:04.672Z,79.36
2017-08-05T14:28:15.140Z,79.94
2017-08-05T14:29:25.463Z,79.56
2017-08-05T14:30:36.041Z,79.56
2017-08-05T14:31:46.529Z,80.14
2017-08-05T14:32:56.784Z,80.14
2017-08-05T14:34:07.257Z,80.33
2017-08-05T14:35:18.020Z,80.04
2017-08-05T14:36:28.824Z,80.04
2017-08-05T14:37:39.349Z,80.71
2017-08-05T14:38:50.060Z,80.43
2017-08-05T14:40:00.521Z,80.43
2017-08-05T14:41:10.860Z,80.43
2017-08-05T14:42:21.378Z,79.94
2017-08-05T14:43:31.851Z,80.52
2017-08-05T14:44:42.036Z,81.1
2017-08-05T14:45:52.514Z,81.1
2017-08-05T14:47:03.295Z,80.91
2017-08-05T14:48:13.774Z,81.2
2017-08-05T14:49:24.491Z,81.2
2017-08-05T14:50:35.019Z,81.01
2017-08-05T14:51:46.487Z,80.91
2017-08-05T14:52:57.393Z,80.43
2017-08-05T14:54:07.921Z,80.33
2017-08-05T14:55:18.464Z,80.27
2017-08-05T14:56:28.971Z,79.94
2017-08-05T14:57:39.169Z,80.08
2017-08-05T14:58:50.134Z,80.27
2017-08-05T15:00:00.643Z,79.98
2017-08-05T15:01:11.090Z,78.92
2017-08-05T15:02:22.592Z,78.73
2017-08-05T15:03:33.262Z,78.63
2017-08-05T15:04:44.055Z,79.16
2017-08-05T15:05:54.600Z,79.11
2017-08-05T15:07:05.074Z,78.77
2017-08-05T15:08:15.251Z,79.44
2017-08-05T15:09:25.411Z,79.35
2017-08-05T15:10:36.115Z,78.77